sensor_id;sensor_type;location;lat;lon;timestamp;pressure;altitude;pressure_sealevel;temperature;humidity
53659;BME280;41524;35.624;139.698;2023-03-15T00:00:12;102698.00;;;11.80;43.88
53659;BME280;41524;35.624;139.698;2023-03-15T00:05:15;102692.00;;;12.58;44.00
53659;BME280;41524;35.624;139.698;2023-03-15T00:10:11;102694.00;;;11.98;46.45
53659;BME280;41524;35.624;139.698;2023-03-15T00:15:12;102691.00;;;11.99;45.17
53659;BME280;41524;35.624;139.698;2023-03-15T00:20:12;102692.00;;;11.79;42.91
53659;BME280;41524;35.624;139.698;2023-03-15T00:25:12;102691.00;;;12.42;42.82
53659;BME280;41524;35.624;139.698;2023-03-15T00:30:16;102693.00;;;11.43;42.73
53659;BME280;41524;35.624;139.698;2023-03-15T00:35:16;102689.00;;;10.73;45.24
53659;BME280;41524;35.624;139.698;2023-03-15T00:40:12;102687.00;;;12.19;43.01
53659;BME280;41524;35.624;139.698;2023-03-15T00:45:11;102681.00;;;11.16;45.02
53659;BME280;41524;35.624;139.698;2023-03-15T00:50:11;102681.00;;;13.19;41.23
53659;BME280;41524;35.624;139.698;2023-03-15T00:55:12;102676.00;;;13.36;42.42
53659;BME280;41524;35.624;139.698;2023-03-15T01:00:15;102677.00;;;13.20;40.56
53659;BME280;41524;35.624;139.698;2023-03-15T01:05:11;102676.00;;;12.83;40.55
53659;BME280;41524;35.624;139.698;2023-03-15T01:10:17;102686.00;;;12.72;40.24
53659;BME280;41524;35.624;139.698;2023-03-15T01:15:13;102682.00;;;11.06;42.36
53659;BME280;41524;35.624;139.698;2023-03-15T01:20:17;102672.00;;;11.99;41.29
53659;BME280;41524;35.624;139.698;2023-03-15T01:25:17;102659.00;;;13.62;41.40
53659;BME280;41524;35.624;139.698;2023-03-15T01:30:16;102657.00;;;11.79;41.47
53659;BME280;41524;35.624;139.698;2023-03-15T01:35:16;102653.00;;;12.67;40.94
53659;BME280;41524;35.624;139.698;2023-03-15T01:40:13;102652.00;;;14.00;40.03
53659;BME280;41524;35.624;139.698;2023-03-15T01:46:26;102658.00;;;12.81;39.84
53659;BME280;41524;35.624;139.698;2023-03-15T01:50:11;102661.00;;;12.24;41.20
53659;BME280;41524;35.624;139.698;2023-03-15T01:55:12;102641.00;;;14.20;38.75
53659;BME280;41524;35.624;139.698;2023-03-15T02:00:14;102654.00;;;12.59;39.99
53659;BME280;41524;35.624;139.698;2023-03-15T02:05:12;102639.00;;;12.62;40.74
53659;BME280;41524;35.624;139.698;2023-03-15T02:10:24;102630.00;;;13.23;40.76
53659;BME280;41524;35.624;139.698;2023-03-15T02:15:12;102634.00;;;12.93;40.14
53659;BME280;41524;35.624;139.698;2023-03-15T02:20:20;102625.00;;;11.90;41.42
53659;BME280;41524;35.624;139.698;2023-03-15T02:25:17;102625.00;;;12.58;41.61
53659;BME280;41524;35.624;139.698;2023-03-15T02:30:17;102626.00;;;12.18;40.45
53659;BME280;41524;35.624;139.698;2023-03-15T02:35:24;102611.00;;;13.87;39.36
53659;BME280;41524;35.624;139.698;2023-03-15T02:40:20;102604.00;;;15.44;38.01
53659;BME280;41524;35.624;139.698;2023-03-15T02:45:20;102602.00;;;14.94;36.86
53659;BME280;41524;35.624;139.698;2023-03-15T02:50:11;102589.00;;;14.44;37.35
53659;BME280;41524;35.624;139.698;2023-03-15T02:55:10;102583.00;;;14.34;37.54
53659;BME280;41524;35.624;139.698;2023-03-15T03:00:12;102575.00;;;13.34;39.60
53659;BME280;41524;35.624;139.698;2023-03-15T03:05:13;102572.00;;;13.27;38.35
53659;BME280;41524;35.624;139.698;2023-03-15T03:10:14;102566.00;;;15.36;36.37
53659;BME280;41524;35.624;139.698;2023-03-15T03:15:16;102555.00;;;14.69;36.85
53659;BME280;41524;35.624;139.698;2023-03-15T03:20:15;102544.00;;;14.86;36.65
53659;BME280;41524;35.624;139.698;2023-03-15T03:25:11;102531.00;;;14.41;37.32
53659;BME280;41524;35.624;139.698;2023-03-15T03:30:15;102527.00;;;16.55;34.68
53659;BME280;41524;35.624;139.698;2023-03-15T03:35:14;102518.00;;;16.73;33.97
53659;BME280;41524;35.624;139.698;2023-03-15T03:40:15;102506.00;;;15.72;34.99
53659;BME280;41524;35.624;139.698;2023-03-15T03:45:11;102502.00;;;16.02;34.58
53659;BME280;41524;35.624;139.698;2023-03-15T03:50:14;102490.00;;;15.76;36.64
53659;BME280;41524;35.624;139.698;2023-03-15T03:55:11;102489.00;;;15.15;35.78
53659;BME280;41524;35.624;139.698;2023-03-15T04:00:16;102478.00;;;14.19;37.94
53659;BME280;41524;35.624;139.698;2023-03-15T04:05:10;102472.00;;;14.57;36.28
53659;BME280;41524;35.624;139.698;2023-03-15T04:10:11;102459.00;;;15.16;35.80
53659;BME280;41524;35.624;139.698;2023-03-15T04:15:11;102457.00;;;15.27;35.98
53659;BME280;41524;35.624;139.698;2023-03-15T04:20:12;102445.00;;;16.25;34.80
53659;BME280;41524;35.624;139.698;2023-03-15T04:25:11;102436.00;;;15.86;35.20
53659;BME280;41524;35.624;139.698;2023-03-15T04:30:11;102434.00;;;15.41;37.01
53659;BME280;41524;35.624;139.698;2023-03-15T04:35:18;102432.00;;;16.40;34.87
53659;BME280;41524;35.624;139.698;2023-03-15T04:40:14;102423.00;;;16.59;35.63
53659;BME280;41524;35.624;139.698;2023-03-15T04:45:12;102417.00;;;15.71;36.09
53659;BME280;41524;35.624;139.698;2023-03-15T04:50:11;102418.00;;;15.39;37.48
53659;BME280;41524;35.624;139.698;2023-03-15T04:55:12;102415.00;;;17.61;33.19
53659;BME280;41524;35.624;139.698;2023-03-15T05:00:11;102415.00;;;15.22;35.64
53659;BME280;41524;35.624;139.698;2023-03-15T05:05:12;102405.00;;;16.47;33.99
53659;BME280;41524;35.624;139.698;2023-03-15T05:10:12;102415.00;;;16.92;33.73
53659;BME280;41524;35.624;139.698;2023-03-15T05:15:12;102413.00;;;16.09;34.94
53659;BME280;41524;35.624;139.698;2023-03-15T05:20:12;102412.00;;;16.30;34.38
53659;BME280;41524;35.624;139.698;2023-03-15T05:25:12;102413.00;;;15.71;35.95
53659;BME280;41524;35.624;139.698;2023-03-15T05:30:12;102412.00;;;16.36;35.36
53659;BME280;41524;35.624;139.698;2023-03-15T05:35:11;102407.00;;;16.61;34.95
53659;BME280;41524;35.624;139.698;2023-03-15T05:40:20;102406.00;;;17.38;34.13
53659;BME280;41524;35.624;139.698;2023-03-15T05:45:18;102409.00;;;16.98;34.96
53659;BME280;41524;35.624;139.698;2023-03-15T05:50:11;102412.00;;;15.55;36.90
53659;BME280;41524;35.624;139.698;2023-03-15T05:55:16;102418.00;;;14.87;37.90
53659;BME280;41524;35.624;139.698;2023-03-15T06:00:11;102403.00;;;15.74;36.98
53659;BME280;41524;35.624;139.698;2023-03-15T06:05:12;102407.00;;;15.58;37.53
53659;BME280;41524;35.624;139.698;2023-03-15T06:10:11;102405.00;;;14.84;39.33
53659;BME280;41524;35.624;139.698;2023-03-15T06:15:11;102409.00;;;16.26;37.54
53659;BME280;41524;35.624;139.698;2023-03-15T06:20:16;102422.00;;;15.15;39.28
53659;BME280;41524;35.624;139.698;2023-03-15T06:25:11;102414.00;;;14.42;40.51
53659;BME280;41524;35.624;139.698;2023-03-15T06:30:12;102415.00;;;15.10;39.75
53659;BME280;41524;35.624;139.698;2023-03-15T06:35:11;102411.00;;;15.31;39.73
53659;BME280;41524;35.624;139.698;2023-03-15T06:40:19;102407.00;;;14.95;40.24
53659;BME280;41524;35.624;139.698;2023-03-15T06:45:12;102412.00;;;14.92;41.32
53659;BME280;41524;35.624;139.698;2023-03-15T06:50:20;102416.00;;;14.27;41.31
53659;BME280;41524;35.624;139.698;2023-03-15T06:55:16;102414.00;;;14.95;40.38
53659;BME280;41524;35.624;139.698;2023-03-15T07:00:20;102413.00;;;14.64;41.40
53659;BME280;41524;35.624;139.698;2023-03-15T07:05:11;102416.00;;;14.81;41.63
53659;BME280;41524;35.624;139.698;2023-03-15T07:10:15;102416.00;;;15.28;41.81
53659;BME280;41524;35.624;139.698;2023-03-15T07:15:16;102419.00;;;14.14;43.16
53659;BME280;41524;35.624;139.698;2023-03-15T07:20:16;102419.00;;;14.15;43.84
53659;BME280;41524;35.624;139.698;2023-03-15T07:25:11;102423.00;;;14.01;44.47
53659;BME280;41524;35.624;139.698;2023-03-15T07:30:12;102435.00;;;13.08;46.06
53659;BME280;41524;35.624;139.698;2023-03-15T07:35:11;102438.00;;;13.64;45.65
53659;BME280;41524;35.624;139.698;2023-03-15T07:40:12;102435.00;;;13.78;45.58
53659;BME280;41524;35.624;139.698;2023-03-15T07:45:16;102439.00;;;13.45;46.69
53659;BME280;41524;35.624;139.698;2023-03-15T07:50:22;102451.00;;;13.64;45.93
53659;BME280;41524;35.624;139.698;2023-03-15T07:55:11;102456.00;;;14.03;44.81
53659;BME280;41524;35.624;139.698;2023-03-15T08:00:17;102459.00;;;14.29;44.20
53659;BME280;41524;35.624;139.698;2023-03-15T08:05:16;102457.00;;;14.55;43.86
53659;BME280;41524;35.624;139.698;2023-03-15T08:10:13;102461.00;;;14.80;43.96
53659;BME280;41524;35.624;139.698;2023-03-15T08:15:13;102468.00;;;13.72;45.45
53659;BME280;41524;35.624;139.698;2023-03-15T08:20:11;102473.00;;;13.87;45.45
53659;BME280;41524;35.624;139.698;2023-03-15T08:25:13;102476.00;;;14.92;44.13
53659;BME280;41524;35.624;139.698;2023-03-15T08:30:13;102476.00;;;14.46;44.84
53659;BME280;41524;35.624;139.698;2023-03-15T08:35:18;102475.00;;;13.83;45.61
53659;BME280;41524;35.624;139.698;2023-03-15T08:40:12;102479.00;;;13.32;46.83
53659;BME280;41524;35.624;139.698;2023-03-15T08:45:12;102482.00;;;13.92;45.95
53659;BME280;41524;35.624;139.698;2023-03-15T08:50:12;102485.00;;;14.28;45.16
53659;BME280;41524;35.624;139.698;2023-03-15T08:55:20;102489.00;;;13.32;46.86
53659;BME280;41524;35.624;139.698;2023-03-15T09:00:12;102486.00;;;14.24;45.75
53659;BME280;41524;35.624;139.698;2023-03-15T09:05:11;102491.00;;;13.64;47.48
53659;BME280;41524;35.624;139.698;2023-03-15T09:10:18;102493.00;;;13.71;46.95
53659;BME280;41524;35.624;139.698;2023-03-15T09:15:15;102497.00;;;13.10;47.63
53659;BME280;41524;35.624;139.698;2023-03-15T09:20:13;102498.00;;;13.25;47.87
53659;BME280;41524;35.624;139.698;2023-03-15T09:25:11;102492.00;;;13.50;47.27
53659;BME280;41524;35.624;139.698;2023-03-15T09:30:16;102491.00;;;13.62;47.20
53659;BME280;41524;35.624;139.698;2023-03-15T09:35:18;102496.00;;;13.66;47.56
53659;BME280;41524;35.624;139.698;2023-03-15T09:40:16;102500.00;;;13.97;46.69
53659;BME280;41524;35.624;139.698;2023-03-15T09:45:17;102505.00;;;13.10;48.72
53659;BME280;41524;35.624;139.698;2023-03-15T09:50:19;102510.00;;;13.56;47.84
53659;BME280;41524;35.624;139.698;2023-03-15T09:55:14;102516.00;;;13.83;48.24
53659;BME280;41524;35.624;139.698;2023-03-15T10:00:22;102522.00;;;13.65;48.03
53659;BME280;41524;35.624;139.698;2023-03-15T10:05:21;102527.00;;;12.40;50.86
53659;BME280;41524;35.624;139.698;2023-03-15T10:10:18;102530.00;;;12.71;50.14
53659;BME280;41524;35.624;139.698;2023-03-15T10:15:31;102527.00;;;13.06;49.91
53659;BME280;41524;35.624;139.698;2023-03-15T10:25:18;102524.00;;;13.33;49.68
53659;BME280;41524;35.624;139.698;2023-03-15T10:30:18;102522.00;;;13.15;49.43
53659;BME280;41524;35.624;139.698;2023-03-15T10:35:16;102524.00;;;13.27;49.27
53659;BME280;41524;35.624;139.698;2023-03-15T10:40:13;102526.00;;;13.10;49.18
53659;BME280;41524;35.624;139.698;2023-03-15T10:45:21;102523.00;;;13.50;48.38
53659;BME280;41524;35.624;139.698;2023-03-15T10:50:18;102527.00;;;13.42;48.75
53659;BME280;41524;35.624;139.698;2023-03-15T10:55:17;102528.00;;;12.82;50.81
53659;BME280;41524;35.624;139.698;2023-03-15T11:00:25;102535.00;;;12.05;52.10
53659;BME280;41524;35.624;139.698;2023-03-15T11:05:18;102542.00;;;12.49;50.73
53659;BME280;41524;35.624;139.698;2023-03-15T11:10:21;102546.00;;;13.04;49.93
53659;BME280;41524;35.624;139.698;2023-03-15T11:15:13;102556.00;;;11.48;52.52
53659;BME280;41524;35.624;139.698;2023-03-15T11:20:27;102550.00;;;13.33;49.74
53659;BME280;41524;35.624;139.698;2023-03-15T11:25:13;102552.00;;;12.48;50.27
53659;BME280;41524;35.624;139.698;2023-03-15T11:30:27;102551.00;;;13.28;48.94
53659;BME280;41524;35.624;139.698;2023-03-15T11:35:21;102554.00;;;12.90;49.92
53659;BME280;41524;35.624;139.698;2023-03-15T11:40:16;102556.00;;;12.08;51.52
53659;BME280;41524;35.624;139.698;2023-03-15T11:45:26;102557.00;;;12.18;50.92
53659;BME280;41524;35.624;139.698;2023-03-15T11:55:18;102555.00;;;12.41;50.71
53659;BME280;41524;35.624;139.698;2023-03-15T12:00:53;102552.00;;;12.26;51.16
53659;BME280;41524;35.624;139.698;2023-03-15T12:05:42;102545.00;;;12.02;51.59
53659;BME280;41524;35.624;139.698;2023-03-15T12:11:38;102544.00;;;12.46;51.34
53659;BME280;41524;35.624;139.698;2023-03-15T12:15:54;102544.00;;;12.54;51.74
53659;BME280;41524;35.624;139.698;2023-03-15T12:20:20;102541.00;;;12.12;53.01
53659;BME280;41524;35.624;139.698;2023-03-15T12:25:21;102539.00;;;12.79;51.94
53659;BME280;41524;35.624;139.698;2023-03-15T12:30:22;102538.00;;;12.72;51.64
53659;BME280;41524;35.624;139.698;2023-03-15T12:35:16;102532.00;;;11.86;53.20
53659;BME280;41524;35.624;139.698;2023-03-15T12:40:40;102524.00;;;12.54;51.44
53659;BME280;41524;35.624;139.698;2023-03-15T12:45:45;102520.00;;;12.38;51.36
53659;BME280;41524;35.624;139.698;2023-03-15T12:51:43;102521.00;;;12.38;51.95
53659;BME280;41524;35.624;139.698;2023-03-15T12:55:15;102517.00;;;12.64;51.15
53659;BME280;41524;35.624;139.698;2023-03-15T13:00:14;102517.00;;;11.53;52.98
53659;BME280;41524;35.624;139.698;2023-03-15T13:05:19;102511.00;;;11.77;52.74
53659;BME280;41524;35.624;139.698;2023-03-15T13:10:35;102512.00;;;11.24;53.93
53659;BME280;41524;35.624;139.698;2023-03-15T13:15:20;102507.00;;;11.85;53.16
53659;BME280;41524;35.624;139.698;2023-03-15T13:20:28;102507.00;;;12.02;52.86
53659;BME280;41524;35.624;139.698;2023-03-15T13:25:20;102505.00;;;11.65;53.56
53659;BME280;41524;35.624;139.698;2023-03-15T13:30:31;102500.00;;;11.90;53.06
53659;BME280;41524;35.624;139.698;2023-03-15T13:35:21;102498.00;;;11.88;53.63
53659;BME280;41524;35.624;139.698;2023-03-15T13:40:16;102500.00;;;11.96;53.69
53659;BME280;41524;35.624;139.698;2023-03-15T13:45:14;102499.00;;;11.86;53.63
53659;BME280;41524;35.624;139.698;2023-03-15T13:50:15;102499.00;;;11.33;54.83
53659;BME280;41524;35.624;139.698;2023-03-15T13:55:14;102487.00;;;11.93;53.66
53659;BME280;41524;35.624;139.698;2023-03-15T14:00:15;102483.00;;;11.53;54.52
53659;BME280;41524;35.624;139.698;2023-03-15T14:05:21;102485.00;;;10.56;56.90
53659;BME280;41524;35.624;139.698;2023-03-15T14:10:28;102478.00;;;12.13;53.60
53659;BME280;41524;35.624;139.698;2023-03-15T14:15:20;102471.00;;;11.38;54.99
53659;BME280;41524;35.624;139.698;2023-03-15T14:20:16;102470.00;;;11.56;54.96
53659;BME280;41524;35.624;139.698;2023-03-15T14:25:26;102467.00;;;11.91;54.50
53659;BME280;41524;35.624;139.698;2023-03-15T14:35:23;102459.00;;;11.51;55.17
53659;BME280;41524;35.624;139.698;2023-03-15T14:40:18;102461.00;;;11.60;55.14
53659;BME280;41524;35.624;139.698;2023-03-15T14:45:12;102466.00;;;10.64;57.75
53659;BME280;41524;35.624;139.698;2023-03-15T14:50:15;102461.00;;;11.67;55.07
53659;BME280;41524;35.624;139.698;2023-03-15T14:55:22;102460.00;;;11.79;55.39
53659;BME280;41524;35.624;139.698;2023-03-15T15:00:20;102461.00;;;11.54;55.93
53659;BME280;41524;35.624;139.698;2023-03-15T15:05:21;102464.00;;;11.54;56.11
53659;BME280;41524;35.624;139.698;2023-03-15T15:10:22;102464.00;;;11.56;56.06
53659;BME280;41524;35.624;139.698;2023-03-15T15:15:15;102471.00;;;10.51;59.02
53659;BME280;41524;35.624;139.698;2023-03-15T15:20:11;102467.00;;;11.08;57.46
53659;BME280;41524;35.624;139.698;2023-03-15T15:25:17;102466.00;;;10.96;57.32
53659;BME280;41524;35.624;139.698;2023-03-15T15:30:22;102454.00;;;12.54;54.42
53659;BME280;41524;35.624;139.698;2023-03-15T15:35:18;102453.00;;;11.54;56.07
53659;BME280;41524;35.624;139.698;2023-03-15T15:40:18;102456.00;;;11.07;57.43
53659;BME280;41524;35.624;139.698;2023-03-15T15:45:12;102455.00;;;10.34;59.21
53659;BME280;41524;35.624;139.698;2023-03-15T15:50:14;102458.00;;;11.91;55.91
53659;BME280;41524;35.624;139.698;2023-03-15T15:55:13;102464.00;;;11.01;57.75
53659;BME280;41524;35.624;139.698;2023-03-15T16:00:20;102455.00;;;11.05;57.73
53659;BME280;41524;35.624;139.698;2023-03-15T16:05:13;102446.00;;;11.64;56.31
53659;BME280;41524;35.624;139.698;2023-03-15T16:10:19;102432.00;;;11.62;56.22
53659;BME280;41524;35.624;139.698;2023-03-15T16:15:23;102427.00;;;11.54;56.64
53659;BME280;41524;35.624;139.698;2023-03-15T16:20:14;102428.00;;;11.37;56.43
53659;BME280;41524;35.624;139.698;2023-03-15T16:25:19;102430.00;;;11.22;56.60
53659;BME280;41524;35.624;139.698;2023-03-15T16:30:18;102432.00;;;11.78;55.68
53659;BME280;41524;35.624;139.698;2023-03-15T16:35:11;102429.00;;;11.45;56.13
53659;BME280;41524;35.624;139.698;2023-03-15T16:40:21;102432.00;;;11.45;56.24
53659;BME280;41524;35.624;139.698;2023-03-15T16:45:13;102423.00;;;11.70;55.46
53659;BME280;41524;35.624;139.698;2023-03-15T16:50:11;102413.00;;;10.96;56.99
53659;BME280;41524;35.624;139.698;2023-03-15T16:55:13;102415.00;;;10.78;57.37
53659;BME280;41524;35.624;139.698;2023-03-15T17:00:16;102409.00;;;11.36;56.35
53659;BME280;41524;35.624;139.698;2023-03-15T17:05:11;102406.00;;;11.43;55.89
53659;BME280;41524;35.624;139.698;2023-03-15T17:15:17;102393.00;;;11.26;56.55
53659;BME280;41524;35.624;139.698;2023-03-15T17:20:12;102388.00;;;11.10;56.95
53659;BME280;41524;35.624;139.698;2023-03-15T17:25:12;102392.00;;;11.51;55.73
53659;BME280;41524;35.624;139.698;2023-03-15T17:35:11;102387.00;;;10.60;57.52
53659;BME280;41524;35.624;139.698;2023-03-15T17:40:19;102387.00;;;10.75;57.16
53659;BME280;41524;35.624;139.698;2023-03-15T17:45:16;102395.00;;;10.15;59.03
53659;BME280;41524;35.624;139.698;2023-03-15T17:50:13;102398.00;;;10.31;58.25
53659;BME280;41524;35.624;139.698;2023-03-15T17:55:18;102388.00;;;10.09;58.72
53659;BME280;41524;35.624;139.698;2023-03-15T18:00:12;102383.00;;;9.04;60.49
53659;BME280;41524;35.624;139.698;2023-03-15T18:05:15;102389.00;;;9.97;58.91
53659;BME280;41524;35.624;139.698;2023-03-15T18:10:18;102380.00;;;9.15;60.13
53659;BME280;41524;35.624;139.698;2023-03-15T18:15:13;102382.00;;;9.66;58.57
53659;BME280;41524;35.624;139.698;2023-03-15T18:20:12;102382.00;;;10.13;57.95
53659;BME280;41524;35.624;139.698;2023-03-15T18:25:18;102382.00;;;9.21;59.17
53659;BME280;41524;35.624;139.698;2023-03-15T18:35:17;102376.00;;;9.56;57.76
53659;BME280;41524;35.624;139.698;2023-03-15T18:40:13;102372.00;;;9.95;57.36
53659;BME280;41524;35.624;139.698;2023-03-15T18:45:16;102370.00;;;9.72;57.21
53659;BME280;41524;35.624;139.698;2023-03-15T18:50:11;102363.00;;;9.10;58.45
53659;BME280;41524;35.624;139.698;2023-03-15T18:55:13;102361.00;;;8.76;59.17
53659;BME280;41524;35.624;139.698;2023-03-15T19:00:13;102364.00;;;8.80;59.21
53659;BME280;41524;35.624;139.698;2023-03-15T19:05:12;102369.00;;;10.03;56.69
53659;BME280;41524;35.624;139.698;2023-03-15T19:10:14;102367.00;;;9.60;57.81
53659;BME280;41524;35.624;139.698;2023-03-15T19:15:12;102364.00;;;8.77;58.94
53659;BME280;41524;35.624;139.698;2023-03-15T19:20:18;102362.00;;;8.79;58.97
53659;BME280;41524;35.624;139.698;2023-03-15T19:25:11;102355.00;;;9.39;57.96
53659;BME280;41524;35.624;139.698;2023-03-15T19:30:12;102357.00;;;8.70;59.08
53659;BME280;41524;35.624;139.698;2023-03-15T19:35:11;102349.00;;;8.71;59.22
53659;BME280;41524;35.624;139.698;2023-03-15T19:40:15;102348.00;;;9.05;58.60
53659;BME280;41524;35.624;139.698;2023-03-15T19:45:12;102350.00;;;8.91;58.67
53659;BME280;41524;35.624;139.698;2023-03-15T19:50:12;102348.00;;;9.70;57.02
53659;BME280;41524;35.624;139.698;2023-03-15T19:55:11;102357.00;;;8.89;58.23
53659;BME280;41524;35.624;139.698;2023-03-15T20:00:13;102351.00;;;8.49;59.23
53659;BME280;41524;35.624;139.698;2023-03-15T20:05:13;102353.00;;;8.56;59.07
53659;BME280;41524;35.624;139.698;2023-03-15T20:10:12;102362.00;;;8.75;58.64
53659;BME280;41524;35.624;139.698;2023-03-15T20:15:17;102364.00;;;8.57;58.45
53659;BME280;41524;35.624;139.698;2023-03-15T20:20:15;102365.00;;;8.97;57.77
53659;BME280;41524;35.624;139.698;2023-03-15T20:25:12;102365.00;;;8.41;58.75
53659;BME280;41524;35.624;139.698;2023-03-15T20:30:18;102361.00;;;8.59;58.02
53659;BME280;41524;35.624;139.698;2023-03-15T20:35:12;102360.00;;;8.15;59.15
53659;BME280;41524;35.624;139.698;2023-03-15T20:40:16;102358.00;;;7.74;60.04
53659;BME280;41524;35.624;139.698;2023-03-15T20:45:12;102358.00;;;8.06;59.58
53659;BME280;41524;35.624;139.698;2023-03-15T20:50:11;102359.00;;;8.13;59.17
53659;BME280;41524;35.624;139.698;2023-03-15T20:55:16;102364.00;;;8.93;57.16
53659;BME280;41524;35.624;139.698;2023-03-15T21:00:13;102361.00;;;8.07;58.86
53659;BME280;41524;35.624;139.698;2023-03-15T21:05:11;102366.00;;;8.80;57.27
53659;BME280;41524;35.624;139.698;2023-03-15T21:10:12;102371.00;;;8.48;57.86
53659;BME280;41524;35.624;139.698;2023-03-15T21:15:12;102376.00;;;8.05;59.05
53659;BME280;41524;35.624;139.698;2023-03-15T21:20:16;102380.00;;;8.79;57.15
53659;BME280;41524;35.624;139.698;2023-03-15T21:25:11;102370.00;;;8.12;58.49
53659;BME280;41524;35.624;139.698;2023-03-15T21:30:17;102363.00;;;8.82;57.20
53659;BME280;41524;35.624;139.698;2023-03-15T21:35:15;102367.00;;;9.47;56.19
53659;BME280;41524;35.624;139.698;2023-03-15T21:40:16;102369.00;;;8.45;58.09
53659;BME280;41524;35.624;139.698;2023-03-15T21:45:12;102372.00;;;9.19;56.78
53659;BME280;41524;35.624;139.698;2023-03-15T21:50:11;102387.00;;;9.21;56.72
53659;BME280;41524;35.624;139.698;2023-03-15T21:55:15;102391.00;;;9.27;56.93
53659;BME280;41524;35.624;139.698;2023-03-15T22:00:12;102405.00;;;9.04;56.67
53659;BME280;41524;35.624;139.698;2023-03-15T22:05:15;102428.00;;;9.76;56.61
53659;BME280;41524;35.624;139.698;2023-03-15T22:10:14;102450.00;;;9.24;57.53
53659;BME280;41524;35.624;139.698;2023-03-15T22:15:12;102447.00;;;9.76;56.55
53659;BME280;41524;35.624;139.698;2023-03-15T22:20:13;102451.00;;;10.43;56.47
53659;BME280;41524;35.624;139.698;2023-03-15T22:25:17;102447.00;;;10.98;54.13
53659;BME280;41524;35.624;139.698;2023-03-15T22:30:13;102445.00;;;11.24;53.48
53659;BME280;41524;35.624;139.698;2023-03-15T22:35:16;102457.00;;;10.85;53.69
53659;BME280;41524;35.624;139.698;2023-03-15T22:40:14;102468.00;;;11.00;54.03
53659;BME280;41524;35.624;139.698;2023-03-15T22:45:18;102468.00;;;11.49;52.87
53659;BME280;41524;35.624;139.698;2023-03-15T22:50:14;102478.00;;;11.53;52.44
53659;BME280;41524;35.624;139.698;2023-03-15T22:55:12;102483.00;;;11.02;53.19
53659;BME280;41524;35.624;139.698;2023-03-15T23:00:14;102481.00;;;11.42;52.80
53659;BME280;41524;35.624;139.698;2023-03-15T23:05:17;102464.00;;;12.03;49.53
53659;BME280;41524;35.624;139.698;2023-03-15T23:10:12;102454.00;;;12.87;48.86
53659;BME280;41524;35.624;139.698;2023-03-15T23:15:11;102448.00;;;13.20;49.19
53659;BME280;41524;35.624;139.698;2023-03-15T23:20:11;102436.00;;;12.85;49.25
53659;BME280;41524;35.624;139.698;2023-03-15T23:25:19;102429.00;;;12.19;50.12
53659;BME280;41524;35.624;139.698;2023-03-15T23:30:12;102415.00;;;12.80;48.80
53659;BME280;41524;35.624;139.698;2023-03-15T23:35:12;102410.00;;;11.46;51.24
53659;BME280;41524;35.624;139.698;2023-03-15T23:40:11;102405.00;;;15.07;47.59
53659;BME280;41524;35.624;139.698;2023-03-15T23:45:12;102397.00;;;14.68;47.31
53659;BME280;41524;35.624;139.698;2023-03-15T23:50:13;102398.00;;;12.04;50.43
53659;BME280;41524;35.624;139.698;2023-03-15T23:55:11;102389.00;;;13.93;48.11
